Winston, Georgia
Current Conditions -  °F | °C
As of 11:35 AM on Monday 24 Nov 2014 (Local Time) from KPUJ Reporting Station
Scattered Clouds Scattered Clouds  
Wind Chill: 70°   Ceiling: Unl
Heat Index: 70°   Visibility: 10mi
Dew Point: 59°   Wind: 8mph
Humidity: 68%   Direction: 250°WSW
Pressure: 29.82"   Gusts: NA
Location:  33.72°N, 84.82°W
Report Text: KPUJ 241635Z AUTO 25007KT 10SM SCT031 21/15 A2982 RMK AO2
Loading
Personal Weather Stations






























Interactive Weather Map New forecast layout! Learn more

10-Day Weather Forecast

Advertisements
Track Severe Weather on mobile